Arnos Vale, Saint Vincent

3:03 AM AST on October 24, 2014 (GMT -0400)
E T Joshua | Change Station
CLOSE
Current Station
Airport
Location: Arnos Vale,
Elevation: 43 ft
Nearby Weather Stations

Elev 43 ft 13.14 °N, 61.21 °W | Updated 2 hours ago

Mostly Cloudy
Mostly Cloudy
77 °F
Feels Like 77 °F
N
7
Wind Variable Wind from ENE

Today
High -- | Low -- °F
--% Chance of Precip.
Yesterday
High -- | Low -- °F
Precip. -- in
5:56 AM 5:41 PM
New Moon, 0% visible
Pressure 29.95 in
Visibility 6.2 miles
Clouds Mostly Cloudy 1500 ft
Dew Point 75 °F
Humidity 94%
Rainfall 0.00 in
Snow Depth Not available.
UV 0 out of 12
Pollen Not available.
Air Quality Not available.
Flu Activity Not available.
METAR TVSV 240500Z 07006KT 9999 BKN015 25/24 Q1014

More Conditions Fewer Conditions

Pressure 29.95 in
Visibility 6.2 miles
Clouds Mostly Cloudy 1500 ft
Dew Point 75 °F
Humidity 94%
Rainfall 0.00 in
Snow Depth Not available.
UV 0 out of 12
Pollen Not available.
Air Quality Not available.
Flu Activity Not available.
METAR TVSV 240500Z 07006KT 9999 BKN015 25/24 Q1014

More Conditions Fewer Conditions

10-Day Weather Forecast

Almanac

Astronomy

Oct. 24, 2014 Rise Set
Actual Time 5:56 AM AST 5:41 PM AST
Civil Twilight 5:35 AM AST 6:02 PM AST
Nautical Twilight 5:09 AM AST 6:27 PM AST
Astronomical Twilight 4:45 AM AST 6:52 PM AST
Moon 6:27 AM AST 6:24 PM AST
Length of Visible Light 12h 27m
Length of Day
11h 44m
Tomorrow will be 0m 40s shorter.
New Moon, 0% of the Moon is Illuminated
Today
New Moon
Oct 30
First Quarter
Nov 6
Full
Nov 14
Last Quarter
Nov 22
New

Yesterday's Extremes

Country Highs Country Lows

Community

WunderPhotos

Upload Photos

1,764,510 photos uploaded!

WunderBlogs® & News

Nearby

Snow Depth

Not available.

Earthquake Activity

City Distance Mag. Time & Date
No recent earthquake activity has been reported nearby.
Minimum magnitude displayed is 2.5.

Coastal Water Temperatures

Place Temperature
No Stations Reporting

Nearby Weather Stations